Time;durP1;ratioP1;P1;durP2;ratioP2;P2;SDS_P1;SDS_P2;PMS_P1;PMS_P2;Temp;Humidity;BMP_temperature;BMP_pressure;BME280_temperature;BME280_humidity;BME280_pressure;Samples;Min_cycle;Max_cycle;Signal;HPM_P1;HPM_P2
2021/10/17 00:00:15;;;;;;;;;;;;;;;5.46;74.52;98726.00;1789949;78;26037;-86
2021/10/17 00:02:44;;;;;;;;;;;;;;;5.34;74.50;98722.22;1751603;80;20483;-86
2021/10/17 00:05:10;;;;;;;;;;;;;;;5.34;74.54;98720.92;1742656;81;20255;-86
2021/10/17 00:07:37;;;;;;;;;;;;;;;5.37;74.54;98716.88;1775832;78;20731;-86
2021/10/17 00:10:04;;;;;;;;;;;;;;;5.46;74.58;98716.46;1776688;78;22003;-85
2021/10/17 00:12:30;;;;;;;;;;;;;;;5.53;74.64;98717.48;1770218;79;26026;-86
2021/10/17 00:14:56;;;;;;;;;;;;;;;5.56;74.68;98717.37;1771736;79;24394;-86
2021/10/17 00:17:25;;;;;;;;;;;;;;;5.58;74.73;98716.38;1771139;79;20249;-86
2021/10/17 00:19:52;;;;;;;;;;;;;;;5.56;74.73;98722.11;1772262;79;25817;-86
2021/10/17 00:22:18;;;;;;;;;;;;;;;5.35;74.68;98706.17;1769427;79;22152;-86
2021/10/17 00:24:44;;;;;;;;;;;;;;;5.26;74.64;98726.05;1766958;79;26004;-86
2021/10/17 00:27:10;;;;;;;;;;;;;;;5.23;74.62;98719.25;1766614;79;24263;-86
2021/10/17 00:29:36;;;;;;;;;;;;;;;5.32;74.63;98721.44;1768175;79;20253;-85
2021/10/17 00:32:02;;;;;;;;;;;;;;;5.23;74.62;98720.55;1756689;80;20234;-85
2021/10/17 00:34:28;;;;;;;;;;;;;;;5.15;74.60;98717.44;1777120;79;22001;-85
2021/10/17 00:36:54;;;;;;;;;;;;;;;5.06;74.60;98717.84;1773358;79;26059;-86
2021/10/17 00:39:21;;;;;;;;;;;;;;;5.10;74.61;98721.98;1735992;80;24483;-86
2021/10/17 00:41:47;;;;;;;;;;;;;;;5.13;74.66;98716.64;1745908;81;20198;-86
2021/10/17 00:44:21;;;;;;;;;;;;;;;5.15;74.69;98715.29;1779815;78;25056;-86
2021/10/17 00:46:48;;;;;;;;;;;;;;;5.12;74.69;98713.69;1738257;81;22149;-86
2021/10/17 00:49:14;;;;;;;;;;;;;;;5.14;74.71;98707.96;1744609;80;25942;-86
2021/10/17 00:51:44;;;;;;;;;;;;;;;5.16;74.74;98713.09;1776642;78;24390;-86
2021/10/17 00:54:11;;;;;;;;;;;;;;;5.08;74.74;98712.11;1768114;79;20538;-86
2021/10/17 00:56:37;;;;;;;;;;;;;;;5.01;74.73;98714.16;1780935;78;24980;-86
2021/10/17 00:59:04;;;;;;;;;;;;;;;4.88;74.68;98712.98;1774622;78;21981;-86
2021/10/17 01:01:31;;;;;;;;;;;;;;;4.80;74.64;98713.74;1771225;79;26119;-85
2021/10/17 01:03:57;;;;;;;;;;;;;;;4.85;74.63;98710.98;1756836;79;24456;-86
2021/10/17 01:06:23;;;;;;;;;;;;;;;4.96;74.68;98715.26;1770493;80;20833;-86
2021/10/17 01:08:49;;;;;;;;;;;;;;;5.02;74.72;98705.44;1771305;80;25098;-86
2021/10/17 01:11:16;;;;;;;;;;;;;;;5.09;74.78;98703.43;1773049;79;22176;-86
2021/10/17 01:13:41;;;;;;;;;;;;;;;5.02;74.78;98708.03;1767778;79;20974;-86
2021/10/17 01:16:08;;;;;;;;;;;;;;;4.86;74.75;98706.16;1768326;79;24399;-85
2021/10/17 01:18:34;;;;;;;;;;;;;;;4.75;74.70;98699.28;1801133;78;20315;-85
2021/10/17 01:21:00;;;;;;;;;;;;;;;4.77;74.70;98705.26;1803951;78;24927;-85
2021/10/17 01:23:27;;;;;;;;;;;;;;;4.67;74.69;98702.67;1804019;78;21970;-86
2021/10/17 01:25:53;;;;;;;;;;;;;;;4.54;74.65;98701.03;1806603;78;26046;-86
2021/10/17 01:28:19;;;;;;;;;;;;;;;4.49;74.63;98702.97;1767894;80;25329;-86
2021/10/17 01:30:45;;;;;;;;;;;;;;;4.43;74.63;98702.77;1769011;80;20450;-85
2021/10/17 01:33:12;;;;;;;;;;;;;;;4.34;74.61;98701.86;1782787;79;25679;-85
2021/10/17 01:35:38;;;;;;;;;;;;;;;4.26;74.60;98700.46;1765884;80;21968;-86
2021/10/17 01:38:04;;;;;;;;;;;;;;;4.24;74.59;98698.41;1807567;77;20970;-86
2021/10/17 01:41:07;;;;;;;;;;;;;;;4.24;74.64;98701.84;1813104;78;24342;-86
2021/10/17 01:43:33;;;;;;;;;;;;;;;4.28;74.70;98702.55;1777546;79;20254;-86
2021/10/17 01:45:59;;;;;;;;;;;;;;;4.28;74.76;98699.95;1774855;79;20739;-86
2021/10/17 01:48:27;;;;;;;;;;;;;;;4.41;74.82;98700.71;1770919;79;22052;-86
2021/10/17 01:50:53;;;;;;;;;;;;;;;4.36;74.86;98695.33;1772741;79;25468;-86
2021/10/17 01:53:19;;;;;;;;;;;;;;;4.37;74.89;98699.58;1771198;79;24408;-86
2021/10/17 01:55:45;;;;;;;;;;;;;;;4.54;74.94;98686.77;1790235;79;20233;-86
2021/10/17 01:58:11;;;;;;;;;;;;;;;4.66;74.99;98693.20;1812376;78;25020;-86
2021/10/17 02:00:37;;;;;;;;;;;;;;;4.73;75.02;98692.05;1798367;77;22112;-86
2021/10/17 02:03:03;;;;;;;;;;;;;;;4.76;75.05;98691.91;1806127;77;21057;-86
2021/10/17 02:05:29;;;;;;;;;;;;;;;4.83;75.08;98695.48;1805819;77;20818;-86
2021/10/17 02:07:55;;;;;;;;;;;;;;;4.79;75.08;98694.39;1802959;77;20307;-85
2021/10/17 02:10:22;;;;;;;;;;;;;;;4.63;75.07;98691.15;1808531;77;25127;-85
2021/10/17 02:12:48;;;;;;;;;;;;;;;4.47;75.01;98694.44;1805549;77;22106;-85
2021/10/17 02:15:14;;;;;;;;;;;;;;;4.32;74.97;98697.17;1803184;77;26001;-85
2021/10/17 02:17:43;;;;;;;;;;;;;;;4.36;74.95;98695.33;1806966;77;24383;-85
2021/10/17 02:20:08;;;;;;;;;;;;;;;4.46;74.98;98693.59;1802385;77;20232;-85
2021/10/17 02:22:36;;;;;;;;;;;;;;;4.54;74.97;98691.96;1812782;77;24379;-85
2021/10/17 02:25:02;;;;;;;;;;;;;;;4.38;74.96;98697.38;1810616;77;22009;-85
2021/10/17 02:27:28;;;;;;;;;;;;;;;4.23;74.95;98685.06;1806919;77;26020;-85
2021/10/17 02:29:54;;;;;;;;;;;;;;;4.30;74.96;98686.50;1766130;80;24541;-85
2021/10/17 02:32:20;;;;;;;;;;;;;;;4.29;74.97;98682.22;1776151;79;20350;-85
2021/10/17 02:34:46;;;;;;;;;;;;;;;4.26;75.01;98679.73;1780352;79;20682;-85
2021/10/17 02:37:13;;;;;;;;;;;;;;;4.28;75.03;98677.94;1785527;79;20322;-85
2021/10/17 02:39:39;;;;;;;;;;;;;;;4.25;75.06;98675.48;1803267;78;26042;-85
2021/10/17 02:42:05;;;;;;;;;;;;;;;4.34;75.06;98672.06;1809130;78;24522;-85
2021/10/17 02:44:31;;;;;;;;;;;;;;;4.44;75.08;98671.22;1807119;78;21759;-85
2021/10/17 02:46:57;;;;;;;;;;;;;;;4.47;75.10;98669.34;1778708;79;25047;-85
2021/10/17 02:49:24;;;;;;;;;;;;;;;4.45;75.11;98669.88;1776184;79;21975;-86
2021/10/17 02:51:51;;;;;;;;;;;;;;;4.20;75.06;98670.47;1810589;78;25929;-86
2021/10/17 02:54:17;;;;;;;;;;;;;;;3.90;74.99;98666.52;1812855;77;24394;-86
2021/10/17 02:56:43;;;;;;;;;;;;;;;3.71;74.90;98664.64;1811293;78;20493;-86
2021/10/17 02:59:10;;;;;;;;;;;;;;;3.76;74.87;98661.42;1810151;78;24948;-86
2021/10/17 03:01:36;;;;;;;;;;;;;;;3.84;74.88;98664.17;1784659;78;21809;-86
2021/10/17 03:04:02;;;;;;;;;;;;;;;3.86;74.93;98666.27;1795455;78;25994;-85
2021/10/17 03:06:28;;;;;;;;;;;;;;;3.77;74.96;98663.56;1774826;78;20248;-86
2021/10/17 03:08:55;;;;;;;;;;;;;;;3.66;74.98;98662.68;1768365;79;20215;-85
2021/10/17 03:11:29;;;;;;;;;;;;;;;3.68;74.99;98663.92;1768357;79;25021;-86
2021/10/17 03:13:57;;;;;;;;;;;;;;;3.77;75.05;98663.56;1775941;79;22728;-86
2021/10/17 03:16:23;;;;;;;;;;;;;;;3.78;75.10;98667.84;1772150;79;25956;-86
2021/10/17 03:18:49;;;;;;;;;;;;;;;;;;1769547;80;20944;-86
2021/10/17 03:21:18;;;;;;;;;;;;;;;3.56;75.12;98657.47;1757273;80;20531;-86
2021/10/17 03:23:44;;;;;;;;;;;;;;;3.58;75.15;98658.27;1758016;79;25038;-86
2021/10/17 03:26:10;;;;;;;;;;;;;;;3.72;75.21;98649.95;1750346;80;22066;-85
2021/10/17 03:28:36;;;;;;;;;;;;;;;3.85;75.31;98650.33;1763810;79;26547;-86
2021/10/17 03:31:06;;;;;;;;;;;;;;;3.91;75.37;98651.39;1740820;80;24543;-86
2021/10/17 03:33:30;;;;;;;;;;;;;;;3.87;75.43;98648.09;1746162;80;20334;-86
2021/10/17 03:35:57;;;;;;;;;;;;;;;3.70;75.42;98654.37;1745288;80;25203;-86
2021/10/17 03:38:23;;;;;;;;;;;;;;;3.52;75.39;98652.03;1769371;78;22044;-86
2021/10/17 03:40:49;;;;;;;;;;;;;;;3.57;75.39;98648.81;1736035;80;26001;-86
2021/10/17 03:43:15;;;;;;;;;;;;;;;3.66;75.42;98649.74;1734784;81;25236;-86
2021/10/17 03:45:41;;;;;;;;;;;;;;;3.75;75.44;98649.41;1748994;81;20261;-86
2021/10/17 03:48:07;;;;;;;;;;;;;;;3.79;75.48;98651.41;1746421;80;24975;-86
2021/10/17 03:50:34;;;;;;;;;;;;;;;3.77;75.51;98650.17;1777572;78;21982;-86
2021/10/17 03:53:00;;;;;;;;;;;;;;;3.72;75.53;98649.95;1777329;78;25971;-86
2021/10/17 03:55:26;;;;;;;;;;;;;;;3.73;75.59;98649.06;1781794;79;24706;-86
2021/10/17 03:57:52;;;;;;;;;;;;;;;3.60;75.58;98651.27;1769386;79;20231;-86
2021/10/17 04:00:18;;;;;;;;;;;;;;;3.50;75.56;98656.41;1772428;79;25014;-86
2021/10/17 04:02:45;;;;;;;;;;;;;;;3.43;75.56;98658.01;1772257;79;20290;-86
2021/10/17 04:05:11;;;;;;;;;;;;;;;3.46;75.58;98657.44;1733038;81;26175;-86
2021/10/17 04:07:37;;;;;;;;;;;;;;;3.48;75.60;98654.34;1734646;80;24523;-86
2021/10/17 04:10:07;;;;;;;;;;;;;;;3.38;75.62;98659.48;1759383;80;20527;-86
2021/10/17 04:12:33;;;;;;;;;;;;;;;3.33;75.62;98650.57;1742652;80;24379;-86
2021/10/17 04:15:00;;;;;;;;;;;;;;;3.28;75.63;98650.34;1737341;80;22170;-87
2021/10/17 04:17:26;;;;;;;;;;;;;;;3.30;75.66;98656.32;1792475;79;26207;-87
2021/10/17 04:19:52;;;;;;;;;;;;;;;3.24;75.67;98653.95;1788840;79;24488;-86
2021/10/17 04:22:19;;;;;;;;;;;;;;;3.16;75.69;98654.70;1799615;78;20207;-87
2021/10/17 04:24:45;;;;;;;;;;;;;;;3.10;75.69;98651.89;1784638;79;24998;-86
2021/10/17 04:27:11;;;;;;;;;;;;;;;3.15;75.74;98653.02;1774780;78;23731;-85
2021/10/17 04:29:38;;;;;;;;;;;;;;;3.08;75.75;98653.67;1794131;78;26045;-85
2021/10/17 04:32:05;;;;;;;;;;;;;;;3.06;75.79;98656.75;1799311;78;24478;-86
2021/10/17 04:34:31;;;;;;;;;;;;;;;3.07;75.82;98655.86;1732634;80;20203;-86
2021/10/17 04:36:57;;;;;;;;;;;;;;;3.14;75.88;98652.16;1744117;80;25337;-86
2021/10/17 04:39:24;;;;;;;;;;;;;;;3.23;75.95;98660.87;1784365;78;21931;-85
2021/10/17 04:41:50;;;;;;;;;;;;;;;3.32;76.01;98649.36;1725716;81;25971;-86
2021/10/17 04:44:16;;;;;;;;;;;;;;;3.30;76.08;98662.78;1769087;79;20881;-85
2021/10/17 04:46:42;;;;;;;;;;;;;;;3.22;76.09;98656.59;1774519;78;20479;-85
2021/10/17 04:49:08;;;;;;;;;;;;;;;3.27;76.11;98659.03;1775063;79;24947;-85
2021/10/17 04:51:37;;;;;;;;;;;;;;;3.24;76.16;98656.55;1740458;81;22003;-86
2021/10/17 04:54:03;;;;;;;;;;;;;;;3.17;76.16;98654.63;1774923;79;27252;-85
2021/10/17 04:56:34;;;;;;;;;;;;;;;3.10;76.15;98655.77;1781452;78;20370;-85
2021/10/17 04:58:57;;;;;;;;;;;;;;;3.05;76.15;98658.13;1773784;79;20499;-85
2021/10/17 05:01:25;;;;;;;;;;;;;;;3.03;76.14;98656.88;1772467;79;24949;-86
2021/10/17 05:03:51;;;;;;;;;;;;;;;3.03;76.18;98659.47;1773673;78;21984;-85
2021/10/17 05:06:17;;;;;;;;;;;;;;;3.03;76.20;98658.62;1798841;78;21092;-86
2021/10/17 05:08:43;;;;;;;;;;;;;;;2.97;76.23;98659.68;1805730;78;24618;-86
2021/10/17 05:11:09;;;;;;;;;;;;;;;2.94;76.24;98663.68;1808762;78;20447;-85
2021/10/17 05:13:38;;;;;;;;;;;;;;;2.91;76.26;98665.06;1824744;77;25059;-86
2021/10/17 05:16:04;;;;;;;;;;;;;;;2.94;76.27;98664.53;1827545;77;22017;-86
2021/10/17 05:18:30;;;;;;;;;;;;;;;3.13;76.37;98675.48;1818462;78;25940;-86
2021/10/17 05:20:57;;;;;;;;;;;;;;;3.20;76.47;98673.08;1829610;76;24477;-86
2021/10/17 05:23:23;;;;;;;;;;;;;;;3.26;76.53;98682.75;1833352;76;20300;-86
2021/10/17 05:25:49;;;;;;;;;;;;;;;3.23;76.55;98688.47;1828196;77;24970;-86
2021/10/17 05:28:15;;;;;;;;;;;;;;;3.24;76.58;98687.12;1832386;76;23004;-86
2021/10/17 05:30:41;;;;;;;;;;;;;;;3.45;76.64;98687.23;1791323;77;26575;-86
2021/10/17 05:33:07;;;;;;;;;;;;;;;3.65;76.71;98694.66;1833888;77;24408;-86
2021/10/17 05:35:33;;;;;;;;;;;;;;;3.65;76.73;98700.29;1834592;77;20205;-86
2021/10/17 05:37:59;;;;;;;;;;;;;;;3.56;76.74;98702.75;1831386;77;25074;-85
2021/10/17 05:40:25;;;;;;;;;;;;;;;3.60;76.78;98705.61;1823750;77;20240;-86
2021/10/17 05:42:52;;;;;;;;;;;;;;;3.56;76.78;98709.22;1828840;77;25939;-86
2021/10/17 05:45:18;;;;;;;;;;;;;;;3.62;76.81;98715.91;1818906;78;24392;-86
2021/10/17 05:47:44;;;;;;;;;;;;;;;3.82;76.85;98715.99;1765863;79;20242;-86
2021/10/17 05:50:10;;;;;;;;;;;;;;;3.82;76.88;98713.88;1770888;78;24930;-86
2021/10/17 05:52:36;;;;;;;;;;;;;;;3.71;76.87;98715.11;1805894;78;22005;-85
2021/10/17 05:55:02;;;;;;;;;;;;;;;3.62;76.85;98714.17;1805421;78;25931;-86
2021/10/17 05:57:28;;;;;;;;;;;;;;;3.57;76.86;98722.55;1807726;78;24428;-86
2021/10/17 05:59:54;;;;;;;;;;;;;;;3.53;76.85;98717.55;1808179;77;20841;-86
2021/10/17 06:02:21;;;;;;;;;;;;;;;3.49;76.86;98718.10;1808253;78;20783;-86
2021/10/17 06:04:47;;;;;;;;;;;;;;;3.49;76.86;98716.80;1778781;78;21967;-86
2021/10/17 06:07:13;;;;;;;;;;;;;;;3.51;76.93;98719.34;1772232;80;26016;-86
2021/10/17 06:09:40;;;;;;;;;;;;;;;3.52;77.00;98719.75;1804156;78;24241;-86
2021/10/17 06:12:08;;;;;;;;;;;;;;;3.53;77.04;98725.32;1801402;78;20209;-86
2021/10/17 06:14:35;;;;;;;;;;;;;;;3.55;77.08;98729.97;1802905;78;25108;-86
2021/10/17 06:17:01;;;;;;;;;;;;;;;3.61;77.15;98729.74;1806427;77;22031;-86
2021/10/17 06:19:27;;;;;;;;;;;;;;;3.69;77.23;98725.98;1801396;77;25962;-86
2021/10/17 06:21:53;;;;;;;;;;;;;;;3.73;77.35;98723.67;1801965;78;24463;-86
2021/10/17 06:24:20;;;;;;;;;;;;;;;3.96;77.45;98728.42;1805351;77;20658;-85
2021/10/17 06:26:46;;;;;;;;;;;;;;;4.16;77.60;98717.67;1804942;77;25196;-86
2021/10/17 06:29:12;;;;;;;;;;;;;;;4.29;77.72;98724.52;1797491;78;22045;-86
2021/10/17 06:31:38;;;;;;;;;;;;;;;4.36;77.81;98732.45;1802779;78;26014;-86
2021/10/17 06:34:04;;;;;;;;;;;;;;;4.40;77.89;98733.16;1805272;77;24406;-86
2021/10/17 06:36:31;;;;;;;;;;;;;;;4.41;77.94;98736.98;1786818;78;20320;-85
2021/10/17 06:38:58;;;;;;;;;;;;;;;4.42;77.97;98738.64;1804072;77;25821;-86
2021/10/17 06:41:24;;;;;;;;;;;;;;;4.47;78.03;98730.72;1797830;78;22071;-85
2021/10/17 06:43:50;;;;;;;;;;;;;;;4.48;78.06;98733.22;1797898;77;25960;-86
2021/10/17 06:46:16;;;;;;;;;;;;;;;4.53;78.08;98734.33;1801060;77;24480;-86
2021/10/17 06:48:42;;;;;;;;;;;;;;;4.63;78.14;98736.95;1802561;77;20458;-86
2021/10/17 06:51:08;;;;;;;;;;;;;;;4.72;78.19;98733.13;1795654;77;24944;-86
2021/10/17 06:53:34;;;;;;;;;;;;;;;4.73;78.23;98729.64;1796090;79;21973;-86
2021/10/17 06:56:00;;;;;;;;;;;;;;;4.81;78.27;98736.63;1804497;77;26005;-85
2021/10/17 06:58:26;;;;;;;;;;;;;;;4.88;78.30;98736.77;1797761;77;24466;-86
2021/10/17 07:00:53;;;;;;;;;;;;;;;4.90;78.32;98739.70;1798228;77;20242;-86
2021/10/17 07:03:19;;;;;;;;;;;;;;;4.97;78.38;98736.37;1810287;77;25015;-86
2021/10/17 07:05:45;;;;;;;;;;;;;;;5.09;78.43;98737.15;1798442;77;22030;-86
2021/10/17 07:08:11;;;;;;;;;;;;;;;5.22;78.52;98742.21;1794176;78;26036;-86
2021/10/17 07:10:37;;;;;;;;;;;;;;;5.37;78.59;98741.53;1798514;78;24405;-86
2021/10/17 07:13:03;;;;;;;;;;;;;;;5.43;78.65;98746.45;1794490;78;20234;-86
2021/10/17 07:15:30;;;;;;;;;;;;;;;5.59;78.72;98745.77;1796056;78;20210;-86
2021/10/17 07:17:56;;;;;;;;;;;;;;;5.75;78.80;98748.06;1810225;78;22910;-87
2021/10/17 07:20:22;;;;;;;;;;;;;;;5.90;78.88;98744.80;1802512;78;21198;-87
2021/10/17 07:22:49;;;;;;;;;;;;;;;5.97;78.93;98754.45;1788444;78;24496;-87
2021/10/17 07:25:16;;;;;;;;;;;;;;;5.97;78.98;98752.70;1787275;78;20463;-86
2021/10/17 07:27:42;;;;;;;;;;;;;;;6.03;79.01;98751.57;1786196;78;24988;-86
2021/10/17 07:30:09;;;;;;;;;;;;;;;6.10;79.06;98755.12;1809840;78;22140;-86
2021/10/17 07:32:35;;;;;;;;;;;;;;;6.15;79.11;98748.41;1805681;78;25938;-86
2021/10/17 07:35:04;;;;;;;;;;;;;;;6.37;79.16;98745.18;1805935;78;24466;-86
2021/10/17 07:37:30;;;;;;;;;;;;;;;6.52;79.26;98743.59;1810052;78;20308;-85
2021/10/17 07:39:56;;;;;;;;;;;;;;;6.67;79.36;98738.94;1798487;78;24962;-86
2021/10/17 07:42:22;;;;;;;;;;;;;;;6.86;79.47;98741.48;1809099;78;21938;-85
2021/10/17 07:44:49;;;;;;;;;;;;;;;7.05;79.57;98748.27;1808634;78;25945;-86
2021/10/17 07:47:15;;;;;;;;;;;;;;;7.18;79.69;98744.59;1806866;78;24386;-85
2021/10/17 07:49:41;;;;;;;;;;;;;;;7.29;79.76;98740.98;1805903;78;20263;-86
2021/10/17 07:52:07;;;;;;;;;;;;;;;7.44;79.86;98743.24;1808377;78;24992;-86
2021/10/17 07:54:37;;;;;;;;;;;;;;;7.60;79.93;98738.06;1810211;78;21984;-86
2021/10/17 07:57:01;;;;;;;;;;;;;;;7.60;79.97;98735.46;1766847;80;26057;-86
2021/10/17 07:59:27;;;;;;;;;;;;;;;7.66;80.03;98739.89;1776840;80;20420;-86
2021/10/17 08:01:53;;;;;;;;;;;;;;;7.76;80.05;98741.53;1788467;78;20425;-86
2021/10/17 08:04:19;;;;;;;;;;;;;;;7.82;80.05;98735.54;1771433;80;20745;-85
2021/10/17 08:06:47;;;;;;;;;;;;;;;7.92;80.02;98740.63;1795038;78;38726;-85
2021/10/17 08:09:13;;;;;;;;;;;;;;;8.05;80.01;98742.58;1801708;78;26032;-86
2021/10/17 08:11:39;;;;;;;;;;;;;;;8.18;79.93;98742.30;1797290;76;20283;-86
2021/10/17 08:14:05;;;;;;;;;;;;;;;8.30;79.85;98741.63;1796596;78;20230;-86
2021/10/17 08:16:34;;;;;;;;;;;;;;;8.42;79.79;98747.92;1803508;78;25015;-86
2021/10/17 08:19:02;;;;;;;;;;;;;;;8.51;79.70;98740.91;1827427;77;22007;-85
2021/10/17 08:21:30;;;;;;;;;;;;;;;8.69;79.67;98740.69;1810347;77;25961;-86
2021/10/17 08:23:56;;;;;;;;;;;;;;;8.73;79.63;98746.09;1823222;77;24493;-86
2021/10/17 08:26:22;;;;;;;;;;;;;;;8.75;79.56;98746.02;1812789;78;20569;-86
2021/10/17 08:28:49;;;;;;;;;;;;;;;8.81;79.48;98743.05;1795983;78;26244;-86
2021/10/17 08:31:17;;;;;;;;;;;;;;;8.90;79.38;98741.67;1765922;79;20243;-86
2021/10/17 08:33:43;;;;;;;;;;;;;;;8.97;79.32;98743.00;1802943;78;20958;-85
2021/10/17 08:36:10;;;;;;;;;;;;;;;9.08;79.23;98739.30;1799886;78;25193;-86
2021/10/17 08:38:36;;;;;;;;;;;;;;;9.21;79.14;98737.66;1810366;78;20295;-86
2021/10/17 08:41:02;;;;;;;;;;;;;;;9.27;79.08;98738.61;1803675;78;24965;-86
2021/10/17 08:43:28;;;;;;;;;;;;;;;9.33;78.98;98739.52;1806481;78;22061;-86
2021/10/17 08:45:57;;;;;;;;;;;;;;;9.40;78.84;98734.77;1805137;78;26050;-85
2021/10/17 08:48:25;;;;;;;;;;;;;;;9.39;78.70;98733.08;1810757;78;24525;-86
2021/10/17 08:50:52;;;;;;;;;;;;;;;9.44;78.58;98735.79;1802791;78;20460;-86
2021/10/17 08:53:17;;;;;;;;;;;;;;;9.58;78.51;98738.89;1805303;76;25060;-86
2021/10/17 08:55:44;;;;;;;;;;;;;;;9.63;78.37;98740.75;1802206;78;22033;-86
2021/10/17 08:58:10;;;;;;;;;;;;;;;9.68;78.22;98733.94;1802469;77;26001;-86
2021/10/17 09:00:36;;;;;;;;;;;;;;;9.72;77.94;98735.42;1811425;77;24487;-86
2021/10/17 09:03:02;;;;;;;;;;;;;;;9.69;77.64;98733.85;1768250;79;20236;-86
2021/10/17 09:05:33;;;;;;;;;;;;;;;9.75;77.37;98736.55;1763096;79;24999;-86
2021/10/17 09:07:59;;;;;;;;;;;;;;;9.84;77.12;98732.05;1809261;77;22314;-86
2021/10/17 09:10:25;;;;;;;;;;;;;;;9.87;76.83;98734.00;1767397;79;26010;-86
2021/10/17 09:12:51;;;;;;;;;;;;;;;9.81;76.45;98731.80;1827921;76;24646;-86
2021/10/17 09:15:22;;;;;;;;;;;;;;;9.85;76.10;98733.27;1823116;76;20280;-86
2021/10/17 09:18:05;;;;;;;;;;;;;;;9.89;75.82;98731.30;1816734;76;25034;-86
2021/10/17 09:20:32;;;;;;;;;;;;;;;9.92;75.53;98733.27;1826144;77;22605;-85
2021/10/17 09:23:02;;;;;;;;;;;;;;;9.91;75.22;98734.20;1828224;78;25987;-86
2021/10/17 09:25:30;;;;;;;;;;;;;;;9.92;74.91;98730.66;1828510;76;24458;-86
2021/10/17 09:27:57;;;;;;;;;;;;;;;9.86;74.55;98735.42;1829301;77;20140;-86
2021/10/17 09:30:23;;;;;;;;;;;;;;;9.82;74.18;98737.86;1821114;76;25031;-86
2021/10/17 09:32:49;;;;;;;;;;;;;;;9.87;73.93;98739.23;1824088;77;22024;-86
2021/10/17 09:35:15;;;;;;;;;;;;;;;9.95;73.68;98734.38;1833098;76;25931;-86
2021/10/17 09:37:43;;;;;;;;;;;;;;;10.00;73.46;98725.78;1822074;77;24509;-86
2021/10/17 09:40:18;;;;;;;;;;;;;;;10.03;73.21;98733.91;1827083;78;20251;-86
2021/10/17 09:42:42;;;;;;;;;;;;;;;10.10;72.97;98732.56;1822004;77;24985;-86
2021/10/17 09:45:22;;;;;;;;;;;;;;;10.19;72.73;98729.89;1791919;77;22350;-86
2021/10/17 09:47:48;;;;;;;;;;;;;;;10.33;72.55;98725.45;1819907;77;26110;-86
2021/10/17 09:50:15;;;;;;;;;;;;;;;10.43;72.40;98722.59;1821776;77;24300;-86
2021/10/17 09:52:45;;;;;;;;;;;;;;;10.47;72.23;98730.61;1825805;76;20189;-86
2021/10/17 09:55:12;;;;;;;;;;;;;;;10.48;72.01;98724.45;1814690;77;25364;-86
2021/10/17 09:57:38;;;;;;;;;;;;;;;10.47;71.74;98718.84;1832994;76;22026;-86
2021/10/17 10:00:05;;;;;;;;;;;;;;;10.53;71.46;98717.61;1830273;76;21023;-87
2021/10/17 10:02:31;;;;;;;;;;;;;;;10.69;71.32;98714.85;1828061;76;24627;-87
2021/10/17 10:04:58;;;;;;;;;;;;;;;10.81;71.13;98710.09;1824517;77;20301;-87
2021/10/17 10:07:25;;;;;;;;;;;;;;;10.90;70.96;98709.50;1812525;78;25009;-87
2021/10/17 10:09:52;;;;;;;;;;;;;;;10.90;70.73;98710.34;1808986;77;22081;-88
2021/10/17 10:12:19;;;;;;;;;;;;;;;10.91;70.48;98708.06;1830987;77;25974;-87
2021/10/17 10:14:46;;;;;;;;;;;;;;;11.00;70.29;98713.64;1802247;77;24489;-86
2021/10/17 10:17:14;;;;;;;;;;;;;;;10.99;70.04;98715.42;1803234;77;20293;-87
2021/10/17 10:19:40;;;;;;;;;;;;;;;10.96;69.74;98712.17;1771504;80;25027;-87
2021/10/17 10:22:06;;;;;;;;;;;;;;;10.99;69.49;98710.19;1807249;77;22034;-86
2021/10/17 10:24:32;;;;;;;;;;;;;;;11.09;69.29;98713.02;1803246;78;26046;-86
2021/10/17 10:26:59;;;;;;;;;;;;;;;11.12;69.09;98708.43;1760516;80;24425;-86
2021/10/17 10:29:26;;;;;;;;;;;;;;;11.12;68.88;98709.73;1761147;80;20215;-86
2021/10/17 10:31:57;;;;;;;;;;;;;;;11.08;68.62;98707.40;1795343;77;25020;-86
2021/10/17 10:34:34;;;;;;;;;;;;;;;11.00;68.32;98709.25;1804591;77;21555;-86
2021/10/17 10:37:13;;;;;;;;;;;;;;;11.03;68.04;98702.48;1806432;78;26017;-86
2021/10/17 10:39:53;;;;;;;;;;;;;;;11.05;67.82;98708.47;1808240;78;24468;-86
2021/10/17 10:42:19;;;;;;;;;;;;;;;11.06;67.59;98707.53;1731042;80;20312;-86
2021/10/17 10:44:45;;;;;;;;;;;;;;;11.13;67.39;98711.39;1766459;79;20781;-88
2021/10/17 10:47:25;;;;;;;;;;;;;;;11.15;67.22;98708.67;1806870;78;22055;-87
2021/10/17 10:49:53;;;;;;;;;;;;;;;11.15;67.03;98706.89;1797394;79;26772;-88
2021/10/17 10:52:27;;;;;;;;;;;;;;;11.05;66.69;98705.84;1792504;79;24393;-87
2021/10/17 10:54:54;;;;;;;;;;;;;;;10.97;66.36;98698.13;1804159;78;20247;-87
2021/10/17 10:57:22;;;;;;;;;;;;;;;10.91;66.02;98704.13;1796330;77;24948;-87
2021/10/17 11:00:08;;;;;;;;;;;;;;;10.93;65.78;98700.11;1796541;77;22133;-87
2021/10/17 11:02:35;;;;;;;;;;;;;;;10.98;65.62;98699.80;1808214;77;26021;-88
2021/10/17 11:05:03;;;;;;;;;;;;;;;11.07;65.48;98700.05;1805755;77;24407;-88
2021/10/17 11:07:34;;;;;;;;;;;;;;;11.12;65.38;98699.27;1776150;79;20447;-88
2021/10/17 11:10:22;;;;;;;;;;;;;;;11.20;65.25;98694.32;1766551;80;25014;-88
2021/10/17 11:12:50;;;;;;;;;;;;;;;11.39;65.21;98697.00;1774606;80;22079;-88
2021/10/17 11:15:18;;;;;;;;;;;;;;;11.50;65.11;98690.55;1778629;79;26073;-88
2021/10/17 11:17:54;;;;;;;;;;;;;;;11.65;65.05;98692.09;1778106;80;25370;-86
2021/10/17 11:20:29;;;;;;;;;;;;;;;11.69;64.93;98692.23;1775725;79;20232;-88
2021/10/17 11:22:55;;;;;;;;;;;;;;;11.72;64.81;98686.80;1784222;79;24997;-88
2021/10/17 11:25:23;;;;;;;;;;;;;;;11.81;64.72;98681.39;1776382;79;21958;-88
2021/10/17 11:27:53;;;;;;;;;;;;;;;11.82;64.58;98679.98;1771174;79;25946;-89
2021/10/17 11:30:21;;;;;;;;;;;;;;;11.89;64.44;98679.89;1771987;79;24602;-88
2021/10/17 11:32:48;;;;;;;;;;;;;;;11.93;64.34;98679.22;1772545;79;20318;-86
2021/10/17 11:35:14;;;;;;;;;;;;;;;11.94;64.16;98667.78;1772013;80;25030;-87
2021/10/17 11:37:40;;;;;;;;;;;;;;;11.99;64.03;98665.20;1773418;80;22015;-86
2021/10/17 11:40:10;;;;;;;;;;;;;;;12.08;63.93;98663.68;1772743;80;21042;-87
2021/10/17 11:42:44;;;;;;;;;;;;;;;12.10;63.77;98660.02;1771287;80;24507;-87
2021/10/17 11:45:22;;;;;;;;;;;;;;;12.13;63.61;98665.03;1761236;80;20315;-87
2021/10/17 11:47:50;;;;;;;;;;;;;;;12.07;63.39;98660.22;1777487;79;25605;-86
2021/10/17 11:50:21;;;;;;;;;;;;;;;12.07;63.22;98655.45;1772653;80;21960;-86
2021/10/17 11:52:48;;;;;;;;;;;;;;;12.09;63.05;98657.49;1777406;79;25926;-86
2021/10/17 11:55:16;;;;;;;;;;;;;;;12.05;62.89;98653.42;1776640;80;25522;-86
2021/10/17 11:57:42;;;;;;;;;;;;;;;12.05;62.76;98655.58;1775608;79;20199;-86
2021/10/17 12:00:09;;;;;;;;;;;;;;;12.10;62.66;98654.77;1770651;80;25700;-86
2021/10/17 12:02:36;;;;;;;;;;;;;;;12.14;62.58;98647.50;1778066;79;22100;-86
2021/10/17 12:05:07;;;;;;;;;;;;;;;12.19;62.54;98640.12;1775973;80;25497;-86
2021/10/17 12:07:32;;;;;;;;;;;;;;;12.07;62.36;98639.70;1785195;78;24514;-85
2021/10/17 12:09:58;;;;;;;;;;;;;;;11.94;62.09;98633.69;1796194;79;20465;-86
2021/10/17 12:12:24;;;;;;;;;;;;;;;11.92;61.94;98627.23;1797057;78;25139;-86
2021/10/17 12:15:03;;;;;;;;;;;;;;;11.91;61.79;98636.05;1799968;78;22080;-86
2021/10/17 12:17:30;;;;;;;;;;;;;;;11.89;61.68;98627.44;1776125;79;26120;-86
2021/10/17 12:20:00;;;;;;;;;;;;;;;11.96;61.60;98627.37;1794748;78;24493;-86
2021/10/17 12:22:27;;;;;;;;;;;;;;;12.06;61.58;98627.06;1791597;78;20246;-86
2021/10/17 12:24:55;;;;;;;;;;;;;;;12.16;61.54;98629.37;1798914;78;25651;-86
2021/10/17 12:27:34;;;;;;;;;;;;;;;12.13;61.44;98632.23;1796851;78;21985;-87
2021/10/17 12:30:04;;;;;;;;;;;;;;;12.16;61.35;98634.62;1797383;78;26112;-86
2021/10/17 12:32:44;;;;;;;;;;;;;;;12.20;61.24;98630.00;1793231;78;25189;-87
2021/10/17 12:35:21;;;;;;;;;;;;;;;12.24;61.18;98624.89;1793857;78;20234;-86
2021/10/17 12:37:47;;;;;;;;;;;;;;;12.30;61.09;98629.69;1792182;79;25113;-87
2021/10/17 12:40:13;;;;;;;;;;;;;;;12.36;60.98;98624.46;1792530;78;22026;-86
2021/10/17 12:42:44;;;;;;;;;;;;;;;12.37;60.90;98619.58;1798911;78;26022;-87
2021/10/17 12:45:10;;;;;;;;;;;;;;;12.33;60.79;98613.70;1795502;78;24312;-87
2021/10/17 12:47:41;;;;;;;;;;;;;;;12.36;60.70;98617.90;1797440;78;20643;-86
2021/10/17 12:50:15;;;;;;;;;;;;;;;12.36;60.57;98610.86;1774787;80;25037;-87
2021/10/17 12:52:41;;;;;;;;;;;;;;;12.27;60.39;98605.47;1807728;78;22054;-87
2021/10/17 12:55:09;;;;;;;;;;;;;;;12.38;60.30;98603.70;1797756;78;25964;-87